Time;durP1;ratioP1;P1;durP2;ratioP2;P2;SDS_P1;SDS_P2;PMS_P1;PMS_P2;Temp;Humidity;BMP_temperature;BMP_pressure;BME280_temperature;BME280_humidity;BME280_pressure;Samples;Min_cycle;Max_cycle;Signal;HPM_P1;HPM_P2
2022/01/27 00:00:49;;;;;;;;;;;;;;;-139.48;100.00;61774.03;5016003;28;20088;-71
2022/01/27 00:03:45;;;;;;;;;;;;;;;-139.48;100.00;61774.03;5014885;28;19933;-70
2022/01/27 00:06:32;;;;;;;;;;;;;;;-139.48;100.00;61774.03;5014934;28;19943;-70
2022/01/27 00:12:29;;;;;;;;;;;;;;;-139.48;100.00;61774.03;5010246;28;19924;-70
2022/01/27 00:15:14;;;;;;;;;;;;;;;-139.48;100.00;61774.03;5037755;22;20428;-73
2022/01/27 00:18:03;;;;;;;;;;;;;;;-139.48;100.00;61774.03;5014601;28;19928;-73
2022/01/27 00:20:47;;;;;;;;;;;;;;;-139.48;100.00;61774.03;5014314;28;19924;-73
2022/01/27 00:23:31;;;;;;;;;;;;;;;-139.48;100.00;61774.03;5000592;28;20332;-73
2022/01/27 00:26:16;;;;;;;;;;;;;;;-139.48;100.00;61774.03;5015144;28;20353;-73
2022/01/27 00:29:00;;;;;;;;;;;;;;;-139.48;100.00;61774.03;5014127;28;19983;-73
2022/01/27 00:31:43;;;;;;;;;;;;;;;-139.48;100.00;61774.03;5015161;28;20424;-72
2022/01/27 00:34:27;;;;;;;;;;;;;;;-139.48;100.00;61774.03;5015200;28;19923;-73
2022/01/27 00:37:11;;;;;;;;;;;;;;;-139.48;100.00;61774.03;5000150;28;19928;-72
2022/01/27 00:39:55;;;;;;;;;;;;;;;-139.48;100.00;61774.03;5014930;28;19927;-72
2022/01/27 00:42:39;;;;;;;;;;;;;;;-139.48;100.00;61774.03;5014090;28;19983;-72
2022/01/27 00:45:24;;;;;;;;;;;;;;;-139.48;100.00;61774.03;5013859;28;19924;-73
2022/01/27 00:48:08;;;;;;;;;;;;;;;-139.48;100.00;61774.03;5014349;28;19928;-72
2022/01/27 00:50:59;;;;;;;;;;;;;;;-139.48;100.00;61774.03;5013721;28;20019;-72
2022/01/27 00:53:52;;;;;;;;;;;;;;;-139.48;100.00;61774.03;5013791;28;19948;-73
2022/01/27 01:11:42;;;;;;;;;;;;;;;-139.48;100.00;61774.03;5013461;28;20332;-73
2022/01/27 01:14:47;;;;;;;;;;;;;;;-139.48;100.00;61774.03;5014653;28;19991;-73
2022/01/27 01:17:39;;;;;;;;;;;;;;;-139.48;100.00;61774.03;5013679;28;19940;-73
2022/01/27 01:29:28;;;;;;;;;;;;;;;-139.48;100.00;61774.03;5014314;28;19968;-73
2022/01/27 01:32:36;;;;;;;;;;;;;;;-139.48;100.00;61774.03;5014141;28;20246;-73
2022/01/27 01:35:28;;;;;;;;;;;;;;;-139.48;100.00;61774.03;5014189;28;19964;-73
2022/01/27 01:38:11;;;;;;;;;;;;;;;-139.48;100.00;61774.03;5013255;28;19929;-73
2022/01/27 01:40:56;;;;;;;;;;;;;;;-139.48;100.00;61774.03;5013130;28;19925;-71
2022/01/27 01:43:40;;;;;;;;;;;;;;;-139.48;100.00;61774.03;5013850;28;19925;-74
2022/01/27 01:46:24;;;;;;;;;;;;;;;-139.48;100.00;61774.03;5014051;28;20022;-74
2022/01/27 01:49:08;;;;;;;;;;;;;;;-139.48;100.00;61774.03;5014054;28;20296;-74
2022/01/27 01:51:52;;;;;;;;;;;;;;;-139.48;100.00;61774.03;4999168;28;19924;-74
2022/01/27 01:54:36;;;;;;;;;;;;;;;-139.48;100.00;61774.03;5013867;28;19972;-74
2022/01/27 01:57:20;;;;;;;;;;;;;;;-139.48;100.00;61774.03;5013318;28;19929;-73
2022/01/27 02:00:05;;;;;;;;;;;;;;;-139.48;100.00;61774.03;5012806;28;20261;-74
2022/01/27 02:02:48;;;;;;;;;;;;;;;-139.48;100.00;61774.03;5012776;28;19924;-74
2022/01/27 02:05:39;;;;;;;;;;;;;;;-139.48;100.00;61774.03;5013575;28;19936;-74
2022/01/27 02:19:56;;;;;;;;;;;;;;;-139.48;100.00;61774.03;5013589;28;19927;-72
2022/01/27 02:22:40;;;;;;;;;;;;;;;-139.48;100.00;61774.03;5013448;28;20431;-72
2022/01/27 02:25:24;;;;;;;;;;;;;;;-139.48;100.00;61774.03;4998482;28;19972;-72
2022/01/27 02:28:08;;;;;;;;;;;;;;;-139.48;100.00;61774.03;5012473;28;19975;-72
2022/01/27 02:30:52;;;;;;;;;;;;;;;-139.48;100.00;61774.03;5013532;28;19944;-74
2022/01/27 02:33:35;;;;;;;;;;;;;;;-139.48;100.00;61774.03;5013158;28;20002;-73
2022/01/27 02:36:19;;;;;;;;;;;;;;;-139.48;100.00;61774.03;5013272;28;19929;-74
2022/01/27 02:39:04;;;;;;;;;;;;;;;-139.48;100.00;61774.03;5013122;28;19925;-73
2022/01/27 02:41:52;;;;;;;;;;;;;;;-139.48;100.00;61774.03;5012410;28;19963;-72
2022/01/27 02:44:39;;;;;;;;;;;;;;;-139.48;100.00;61774.03;4998396;28;20412;-73
2022/01/27 02:47:23;;;;;;;;;;;;;;;-139.48;100.00;61774.03;5013150;28;19975;-73
2022/01/27 02:50:07;;;;;;;;;;;;;;;-139.48;100.00;61774.03;5012185;28;19925;-73
2022/01/27 02:52:51;;;;;;;;;;;;;;;-139.48;100.00;61774.03;5013312;28;20029;-73
2022/01/27 02:55:35;;;;;;;;;;;;;;;-139.48;100.00;61774.03;5013505;28;19984;-73
2022/01/27 02:58:19;;;;;;;;;;;;;;;-139.48;100.00;61774.03;5012207;28;19987;-74
2022/01/27 03:01:04;;;;;;;;;;;;;;;-139.48;100.00;61774.03;5012963;28;19939;-72
2022/01/27 03:03:48;;;;;;;;;;;;;;;-139.48;100.00;61774.03;5012451;28;19940;-73
2022/01/27 03:06:31;;;;;;;;;;;;;;;-139.48;100.00;61774.03;5013333;28;19979;-72
2022/01/27 03:09:15;;;;;;;;;;;;;;;-139.48;100.00;61774.03;5012130;28;20023;-74
2022/01/27 03:12:00;;;;;;;;;;;;;;;-139.48;100.00;61774.03;5015881;28;19924;-74
2022/01/27 03:14:44;;;;;;;;;;;;;;;-139.48;100.00;61774.03;5016783;28;19928;-74
2022/01/27 03:17:28;;;;;;;;;;;;;;;-139.48;100.00;61774.03;5015440;28;19928;-74
2022/01/27 03:20:12;;;;;;;;;;;;;;;-139.48;100.00;61774.03;5015763;28;20335;-74
2022/01/27 03:22:56;;;;;;;;;;;;;;;-139.48;100.00;61774.03;5016677;28;20034;-73
2022/01/27 03:25:40;;;;;;;;;;;;;;;-139.48;100.00;61774.03;5001517;28;19948;-74
2022/01/27 03:28:27;;;;;;;;;;;;;;;-139.48;100.00;61774.03;5016528;28;19971;-74
2022/01/27 03:31:10;;;;;;;;;;;;;;;-139.48;100.00;61774.03;5016541;28;19964;-74
2022/01/27 03:33:54;;;;;;;;;;;;;;;-139.48;100.00;61774.03;5016667;28;19928;-74
2022/01/27 03:36:38;;;;;;;;;;;;;;;-139.48;100.00;61774.03;5015840;28;19928;-74
2022/01/27 03:39:23;;;;;;;;;;;;;;;-139.48;100.00;61774.03;5001487;28;19967;-73
2022/01/27 03:42:07;;;;;;;;;;;;;;;-139.48;100.00;61774.03;5016674;28;20021;-72
2022/01/27 03:44:51;;;;;;;;;;;;;;;-139.48;100.00;61774.03;5015237;28;20019;-72
2022/01/27 03:47:35;;;;;;;;;;;;;;;-139.48;100.00;61774.03;5016246;28;19928;-72
2022/01/27 03:50:19;;;;;;;;;;;;;;;-139.48;100.00;61774.03;5015963;28;19963;-72
2022/01/27 03:53:03;;;;;;;;;;;;;;;-139.48;100.00;61774.03;5015153;28;20076;-72
2022/01/27 03:55:47;;;;;;;;;;;;;;;-139.48;100.00;61774.03;5014990;28;19948;-73
2022/01/27 03:58:31;;;;;;;;;;;;;;;-139.48;100.00;61774.03;5014815;28;20389;-73
2022/01/27 04:01:14;;;;;;;;;;;;;;;-139.48;100.00;61774.03;5015744;28;19944;-72
2022/01/27 04:04:00;;;;;;;;;;;;;;;-139.48;100.00;61774.03;5014621;28;20035;-71
2022/01/27 04:06:43;;;;;;;;;;;;;;;-139.48;100.00;61774.03;5015633;28;19948;-73
2022/01/27 04:09:28;;;;;;;;;;;;;;;-139.48;100.00;61774.03;5000921;28;19925;-73
2022/01/27 04:12:12;;;;;;;;;;;;;;;-139.48;100.00;61774.03;5014508;28;19968;-70
2022/01/27 04:14:56;;;;;;;;;;;;;;;-139.48;100.00;61774.03;5014336;28;19967;-73
2022/01/27 04:17:40;;;;;;;;;;;;;;;-139.48;100.00;61774.03;5015602;28;19968;-74
2022/01/27 04:20:24;;;;;;;;;;;;;;;-139.48;100.00;61774.03;5015797;28;19996;-72
2022/01/27 04:23:08;;;;;;;;;;;;;;;-139.48;100.00;61774.03;5015517;28;19923;-73
2022/01/27 04:25:52;;;;;;;;;;;;;;;-139.48;100.00;61774.03;5015165;28;19923;-73
2022/01/27 04:28:37;;;;;;;;;;;;;;;-139.48;100.00;61774.03;5014503;28;19976;-73
2022/01/27 04:31:23;;;;;;;;;;;;;;;-139.48;100.00;61774.03;5014362;28;19981;-72
2022/01/27 04:34:07;;;;;;;;;;;;;;;-139.48;100.00;61774.03;5014061;28;19924;-74
2022/01/27 04:36:53;;;;;;;;;;;;;;;-139.48;100.00;61774.03;5015007;28;19929;-74
2022/01/27 04:39:45;;;;;;;;;;;;;;;-139.48;100.00;61774.03;5014985;28;19924;-74
2022/01/27 04:42:45;;;;;;;;;;;;;;;-139.48;100.00;61774.03;5014568;28;19924;-75
2022/01/27 04:45:36;;;;;;;;;;;;;;;-139.48;100.00;61774.03;5014119;28;20388;-74
2022/01/27 04:48:22;;;;;;;;;;;;;;;-139.48;100.00;61774.03;5015113;28;19985;-73
2022/01/27 04:51:08;;;;;;;;;;;;;;;-139.48;100.00;61774.03;5014013;28;19956;-73
2022/01/27 04:54:03;;;;;;;;;;;;;;;-139.48;100.00;61774.03;5014061;28;20297;-73
2022/01/27 04:56:47;;;;;;;;;;;;;;;-139.48;100.00;61774.03;5013875;28;19943;-72
2022/01/27 04:59:36;;;;;;;;;;;;;;;-139.48;100.00;61774.03;5014896;28;19924;-72
2022/01/27 05:02:34;;;;;;;;;;;;;;;-139.48;100.00;61774.03;5014839;28;20289;-72
2022/01/27 05:05:18;;;;;;;;;;;;;;;-139.48;100.00;61774.03;5014992;28;20016;-72
2022/01/27 05:08:02;;;;;;;;;;;;;;;-139.48;100.00;61774.03;5014467;28;20384;-72
2022/01/27 05:11:00;;;;;;;;;;;;;;;-139.48;100.00;61774.03;5013387;28;20401;-73
2022/01/27 05:13:53;;;;;;;;;;;;;;;-139.48;100.00;61774.03;5014376;28;19971;-72
2022/01/27 05:16:37;;;;;;;;;;;;;;;-139.48;100.00;61774.03;5014482;28;19945;-72
2022/01/27 05:19:21;;;;;;;;;;;;;;;-139.48;100.00;61774.03;5013272;28;19979;-72
2022/01/27 05:22:05;;;;;;;;;;;;;;;-139.48;100.00;61774.03;5013496;28;19975;-74
2022/01/27 05:24:49;;;;;;;;;;;;;;;-139.48;100.00;61774.03;5014282;28;19940;-74
2022/01/27 05:27:33;;;;;;;;;;;;;;;-139.48;100.00;61774.03;5013418;28;19994;-71
2022/01/27 05:30:17;;;;;;;;;;;;;;;-139.48;100.00;61774.03;4999450;28;19940;-73
2022/01/27 05:33:02;;;;;;;;;;;;;;;-139.48;100.00;61774.03;5012538;28;20064;-74
2022/01/27 05:35:46;;;;;;;;;;;;;;;-139.48;100.00;61774.03;5012807;28;19928;-73
2022/01/27 05:38:29;;;;;;;;;;;;;;;-139.48;100.00;61774.03;5013983;28;19989;-73
2022/01/27 05:41:14;;;;;;;;;;;;;;;-139.48;100.00;61774.03;5013865;28;20345;-73
2022/01/27 05:43:58;;;;;;;;;;;;;;;-139.48;100.00;61774.03;4999329;28;19964;-74
2022/01/27 05:46:42;;;;;;;;;;;;;;;-139.48;100.00;61774.03;5012839;28;19925;-72
2022/01/27 05:49:26;;;;;;;;;;;;;;;-139.48;100.00;61774.03;5012943;28;19971;-73
2022/01/27 05:52:10;;;;;;;;;;;;;;;-139.48;100.00;61774.03;4999042;28;20360;-74
2022/01/27 05:54:54;;;;;;;;;;;;;;;-139.48;100.00;61774.03;5013678;28;20400;-73
2022/01/27 05:57:38;;;;;;;;;;;;;;;-139.48;100.00;61774.03;5013729;28;19928;-74
2022/01/27 06:00:22;;;;;;;;;;;;;;;-139.48;100.00;61774.03;5012857;28;19925;-73
2022/01/27 06:03:05;;;;;;;;;;;;;;;-139.48;100.00;61774.03;5012776;28;19936;-74
2022/01/27 06:05:50;;;;;;;;;;;;;;;-139.48;100.00;61774.03;5013530;28;19924;-73
2022/01/27 06:08:33;;;;;;;;;;;;;;;-139.48;100.00;61774.03;5013858;28;19940;-74
2022/01/27 06:11:17;;;;;;;;;;;;;;;-139.48;100.00;61774.03;5013693;28;19963;-73
2022/01/27 06:14:01;;;;;;;;;;;;;;;-139.48;100.00;61774.03;5013507;28;19975;-73
2022/01/27 06:16:45;;;;;;;;;;;;;;;-139.48;100.00;61774.03;5013536;28;20365;-73
2022/01/27 06:19:30;;;;;;;;;;;;;;;-139.48;100.00;61774.03;5013857;28;20281;-73
2022/01/27 06:22:14;;;;;;;;;;;;;;;-139.48;100.00;61774.03;5013713;28;20377;-73
2022/01/27 06:24:57;;;;;;;;;;;;;;;-139.48;100.00;61774.03;5012483;28;19984;-73
2022/01/27 06:27:41;;;;;;;;;;;;;;;-139.48;100.00;61774.03;5013539;28;19940;-73
2022/01/27 06:30:25;;;;;;;;;;;;;;;-139.48;100.00;61774.03;5012269;28;19944;-73
2022/01/27 06:33:09;;;;;;;;;;;;;;;-139.48;100.00;61774.03;5013757;28;19924;-72
2022/01/27 06:35:53;;;;;;;;;;;;;;;-139.48;100.00;61774.03;5036106;22;19956;-69
2022/01/27 06:38:37;;;;;;;;;;;;;;;-139.48;100.00;61774.03;5012100;28;19983;-69
2022/01/27 06:41:21;;;;;;;;;;;;;;;-139.48;100.00;61774.03;5012490;28;19927;-68
2022/01/27 06:44:05;;;;;;;;;;;;;;;-139.48;100.00;61774.03;5013237;28;19924;-69
2022/01/27 06:46:49;;;;;;;;;;;;;;;-139.48;100.00;61774.03;5017283;28;19925;-69
2022/01/27 06:49:33;;;;;;;;;;;;;;;-139.48;100.00;61774.03;5016171;28;19995;-69
2022/01/27 06:52:19;;;;;;;;;;;;;;;-139.48;100.00;61774.03;5017150;28;19940;-69
2022/01/27 06:55:04;;;;;;;;;;;;;;;-139.48;100.00;61774.03;5017310;28;19940;-69
2022/01/27 06:57:50;;;;;;;;;;;;;;;-139.48;100.00;61774.03;5002298;28;19940;-70
2022/01/27 07:00:33;;;;;;;;;;;;;;;-139.48;100.00;61774.03;5017042;28;19948;-69
2022/01/27 07:03:17;;;;;;;;;;;;;;;-139.48;100.00;61774.03;5016381;28;19968;-69
2022/01/27 07:06:01;;;;;;;;;;;;;;;-139.48;100.00;61774.03;5016334;28;19925;-68
2022/01/27 07:08:45;;;;;;;;;;;;;;;-139.48;100.00;61774.03;5017507;28;20384;-69
2022/01/27 07:11:29;;;;;;;;;;;;;;;-139.48;100.00;61774.03;5016941;28;20361;-69
2022/01/27 07:14:14;;;;;;;;;;;;;;;-139.48;100.00;61774.03;5002479;28;19949;-69
2022/01/27 07:16:58;;;;;;;;;;;;;;;-139.48;100.00;61774.03;5002750;28;19975;-69
2022/01/27 07:19:42;;;;;;;;;;;;;;;-139.48;100.00;61774.03;5002931;28;19939;-69
2022/01/27 07:22:26;;;;;;;;;;;;;;;-139.48;100.00;61774.03;5001987;28;20423;-69
2022/01/27 07:25:10;;;;;;;;;;;;;;;-139.48;100.00;61774.03;5016065;28;19925;-69
2022/01/27 07:27:54;;;;;;;;;;;;;;;-139.48;100.00;61774.03;5016757;28;19960;-69
2022/01/27 07:30:38;;;;;;;;;;;;;;;-139.48;100.00;61774.03;5016472;28;20013;-69
2022/01/27 07:33:22;;;;;;;;;;;;;;;-139.48;100.00;61774.03;5001500;28;20453;-70
2022/01/27 07:36:06;;;;;;;;;;;;;;;-139.48;100.00;61774.03;5016142;28;19944;-69
2022/01/27 07:38:50;;;;;;;;;;;;;;;-139.48;100.00;61774.03;5015278;28;19925;-69
2022/01/27 07:41:34;;;;;;;;;;;;;;;-139.48;100.00;61774.03;5015434;28;19924;-69
2022/01/27 07:44:18;;;;;;;;;;;;;;;-139.48;100.00;61774.03;5015543;28;20273;-70
2022/01/27 07:47:02;;;;;;;;;;;;;;;-139.48;100.00;61774.03;5016504;28;20328;-69
2022/01/27 07:49:46;;;;;;;;;;;;;;;-139.48;100.00;61774.03;5015727;28;19964;-69
2022/01/27 07:52:30;;;;;;;;;;;;;;;-139.48;100.00;61774.03;5001717;28;20289;-69
2022/01/27 07:55:14;;;;;;;;;;;;;;;-139.48;100.00;61774.03;5014688;28;19924;-69
2022/01/27 07:57:58;;;;;;;;;;;;;;;-139.48;100.00;61774.03;5014783;28;19978;-69
2022/01/27 08:00:42;;;;;;;;;;;;;;;-139.48;100.00;61774.03;5016283;28;20388;-69
2022/01/27 08:03:26;;;;;;;;;;;;;;;-139.48;100.00;61774.03;5015115;28;19967;-69
2022/01/27 08:06:10;;;;;;;;;;;;;;;-139.48;100.00;61774.03;5014672;28;19924;-69
2022/01/27 08:08:54;;;;;;;;;;;;;;;-139.48;100.00;61774.03;5014638;28;19924;-69
2022/01/27 08:11:37;;;;;;;;;;;;;;;-139.48;100.00;61774.03;5014697;28;20329;-69
2022/01/27 08:14:21;;;;;;;;;;;;;;;-139.48;100.00;61774.03;5014660;28;19933;-69
2022/01/27 08:17:05;;;;;;;;;;;;;;;-139.48;100.00;61774.03;5000801;28;20389;-69
2022/01/27 08:19:49;;;;;;;;;;;;;;;-139.48;100.00;61774.03;5015557;28;20024;-69
2022/01/27 08:22:37;;;;;;;;;;;;;;;-139.48;100.00;61774.03;5014404;28;19963;-69
2022/01/27 08:25:22;;;;;;;;;;;;;;;-139.48;100.00;61774.03;5000791;28;20367;-69
2022/01/27 08:28:17;;;;;;;;;;;;;;;-139.48;100.00;61774.03;5014372;28;19940;-69
2022/01/27 08:31:02;;;;;;;;;;;;;;;-139.48;100.00;61774.03;5014602;28;19929;-68
2022/01/27 08:33:48;;;;;;;;;;;;;;;-139.48;100.00;61774.03;5015271;28;19924;-69
2022/01/27 08:36:31;;;;;;;;;;;;;;;-139.48;100.00;61774.03;5015517;28;19984;-69
2022/01/27 08:39:15;;;;;;;;;;;;;;;-139.48;100.00;61774.03;5014259;28;19953;-69
2022/01/27 08:41:59;;;;;;;;;;;;;;;-139.48;100.00;61774.03;5015620;28;19924;-69
2022/01/27 08:44:44;;;;;;;;;;;;;;;-139.48;100.00;61774.03;5014239;28;19924;-69
2022/01/27 08:47:28;;;;;;;;;;;;;;;-139.48;100.00;61774.03;5013991;28;19924;-69
2022/01/27 08:50:13;;;;;;;;;;;;;;;-139.48;100.00;61774.03;5014494;28;19948;-69
2022/01/27 08:52:57;;;;;;;;;;;;;;;-139.48;100.00;61774.03;5014210;28;19924;-69
2022/01/27 08:55:44;;;;;;;;;;;;;;;-139.48;100.00;61774.03;5015353;28;19927;-68
2022/01/27 08:58:31;;;;;;;;;;;;;;;-139.48;100.00;61774.03;5000288;28;19984;-69
2022/01/27 09:01:15;;;;;;;;;;;;;;;-139.48;100.00;61774.03;5014787;28;19944;-69
2022/01/27 09:03:59;;;;;;;;;;;;;;;-139.48;100.00;61774.03;5014661;28;20076;-68
2022/01/27 09:06:42;;;;;;;;;;;;;;;-139.48;100.00;61774.03;5013721;28;19963;-69
2022/01/27 09:09:26;;;;;;;;;;;;;;;-139.48;100.00;61774.03;5012981;28;19924;-69
2022/01/27 09:12:11;;;;;;;;;;;;;;;-139.48;100.00;61774.03;5014533;28;19928;-69
2022/01/27 09:14:54;;;;;;;;;;;;;;;-139.48;100.00;61774.03;5013522;28;19981;-69
2022/01/27 09:17:40;;;;;;;;;;;;;;;-139.48;100.00;61774.03;5014864;28;19972;-69
2022/01/27 09:20:24;;;;;;;;;;;;;;;-139.48;100.00;61774.03;5013604;28;19940;-68
2022/01/27 09:23:13;;;;;;;;;;;;;;;-139.48;100.00;61774.03;5014570;28;20044;-69
2022/01/27 09:26:03;;;;;;;;;;;;;;;-139.48;100.00;61774.03;5014373;28;19998;-69
2022/01/27 09:28:47;;;;;;;;;;;;;;;-139.48;100.00;61774.03;5013568;28;19925;-69
2022/01/27 09:31:31;;;;;;;;;;;;;;;-139.48;100.00;61774.03;5014458;28;20007;-69
2022/01/27 09:34:15;;;;;;;;;;;;;;;-139.48;100.00;61774.03;5013049;28;20044;-69
2022/01/27 09:37:02;;;;;;;;;;;;;;;-139.48;100.00;61774.03;4999400;28;20398;-68
2022/01/27 09:39:46;;;;;;;;;;;;;;;-139.48;100.00;61774.03;5013234;28;20398;-69
2022/01/27 09:42:33;;;;;;;;;;;;;;;-139.48;100.00;61774.03;5013977;28;19968;-69
2022/01/27 09:45:17;;;;;;;;;;;;;;;-139.48;100.00;61774.03;4999365;28;20305;-69
2022/01/27 09:48:11;;;;;;;;;;;;;;;-139.48;100.00;61774.03;5014126;28;19929;-68
2022/01/27 09:53:41;;;;;;;;;;;;;;;-139.48;100.00;61774.03;5013063;28;20094;-69
2022/01/27 09:56:25;;;;;;;;;;;;;;;-139.48;100.00;61774.03;5012926;28;19967;-69
2022/01/27 09:59:09;;;;;;;;;;;;;;;-139.48;100.00;61774.03;4998914;28;19939;-69
2022/01/27 10:01:58;;;;;;;;;;;;;;;-139.48;100.00;61774.03;5013890;28;19987;-69
2022/01/27 10:04:46;;;;;;;;;;;;;;;-139.48;100.00;61774.03;5012718;28;19967;-69
2022/01/27 10:07:40;;;;;;;;;;;;;;;-139.48;100.00;61774.03;5012552;28;19931;-69
2022/01/27 10:10:25;;;;;;;;;;;;;;;-139.48;100.00;61774.03;5013671;28;20328;-68
2022/01/27 10:13:11;;;;;;;;;;;;;;;-139.48;100.00;61774.03;5014018;28;20383;-69
2022/01/27 10:15:56;;;;;;;;;;;;;;;-139.48;100.00;61774.03;5013447;28;20289;-68
2022/01/27 10:18:40;;;;;;;;;;;;;;;-139.48;100.00;61774.03;5012048;28;19924;-68
2022/01/27 10:21:30;;;;;;;;;;;;;;;-139.48;100.00;61774.03;5012647;28;19929;-69
2022/01/27 10:24:19;;;;;;;;;;;;;;;-139.48;100.00;61774.03;5012478;28;19956;-69
2022/01/27 10:30:38;;;;;;;;;;;;;;;-139.48;100.00;61774.03;5013812;28;19923;-69
2022/01/27 10:33:20;;;;;;;;;;;;;;;-139.48;100.00;61774.03;5013588;28;19924;-69
2022/01/27 10:36:13;;;;;;;;;;;;;;;-139.48;100.00;61774.03;5011990;28;19967;-69
2022/01/27 10:38:58;;;;;;;;;;;;;;;-139.48;100.00;61774.03;5012483;28;19925;-68
2022/01/27 10:41:55;;;;;;;;;;;;;;;-139.48;100.00;61774.03;5012297;28;19924;-69
2022/01/27 10:44:45;;;;;;;;;;;;;;;-139.48;100.00;61774.03;5013275;28;19972;-69
2022/01/27 10:47:31;;;;;;;;;;;;;;;-139.48;100.00;61774.03;5012729;28;19940;-69
2022/01/27 10:50:16;;;;;;;;;;;;;;;-139.48;100.00;61774.03;5013115;28;19924;-70
2022/01/27 10:53:05;;;;;;;;;;;;;;;-139.48;100.00;61774.03;5013018;28;19960;-69
2022/01/27 10:56:02;;;;;;;;;;;;;;;-139.48;100.00;61774.03;5011901;28;19968;-69
2022/01/27 10:58:46;;;;;;;;;;;;;;;-139.48;100.00;61774.03;5012153;28;19936;-69
2022/01/27 11:01:31;;;;;;;;;;;;;;;-139.48;100.00;61774.03;5013261;28;20011;-69
2022/01/27 11:04:16;;;;;;;;;;;;;;;-139.48;100.00;61774.03;5013081;28;19925;-70
2022/01/27 11:07:01;;;;;;;;;;;;;;;-139.48;100.00;61774.03;4998296;28;19967;-69
2022/01/27 11:09:47;;;;;;;;;;;;;;;-139.48;100.00;61774.03;5012343;28;20143;-69
2022/01/27 11:12:31;;;;;;;;;;;;;;;-139.48;100.00;61774.03;5013173;28;20268;-69
2022/01/27 11:15:18;;;;;;;;;;;;;;;-139.48;100.00;61774.03;5012721;28;19925;-69
2022/01/27 11:18:03;;;;;;;;;;;;;;;-139.48;100.00;61774.03;5012916;28;20254;-68
2022/01/27 11:20:58;;;;;;;;;;;;;;;-139.48;100.00;61774.03;5011784;28;20385;-68
2022/01/27 11:26:26;;;;;;;;;;;;;;;-139.48;100.00;61774.03;5012157;28;19925;-69
2022/01/27 11:29:10;;;;;;;;;;;;;;;-139.48;100.00;61774.03;4997868;28;19923;-68
2022/01/27 11:31:54;;;;;;;;;;;;;;;-139.48;100.00;61774.03;5014087;28;20250;-68
2022/01/27 11:34:48;;;;;;;;;;;;;;;-139.48;100.00;61774.03;5016144;28;20345;-68
2022/01/27 11:37:33;;;;;;;;;;;;;;;-139.48;100.00;61774.03;5016282;28;19928;-70
2022/01/27 11:40:18;;;;;;;;;;;;;;;-139.48;100.00;61774.03;5015200;28;19925;-69
2022/01/27 11:43:03;;;;;;;;;;;;;;;-139.48;100.00;61774.03;5001731;28;19924;-73
2022/01/27 11:45:49;;;;;;;;;;;;;;;-139.48;100.00;61774.03;5016168;28;19929;-69
2022/01/27 11:48:33;;;;;;;;;;;;;;;-139.48;100.00;61774.03;5015110;28;19967;-68
2022/01/27 11:51:17;;;;;;;;;;;;;;;-139.48;100.00;61774.03;5015036;28;19924;-69
2022/01/27 11:54:01;;;;;;;;;;;;;;;-139.48;100.00;61774.03;5015247;28;19928;-64
2022/01/27 11:56:46;;;;;;;;;;;;;;;-139.48;100.00;61774.03;5014886;28;19929;-68
2022/01/27 11:59:36;;;;;;;;;;;;;;;-139.48;100.00;61774.03;5015890;28;20289;-69
2022/01/27 12:02:21;;;;;;;;;;;;;;;-139.48;100.00;61774.03;5001233;28;20043;-68
2022/01/27 12:05:12;;;;;;;;;;;;;;;-139.48;100.00;61774.03;5014804;28;19923;-69
2022/01/27 12:08:23;;;;;;;;;;;;;;;-139.48;100.00;61774.03;5016005;28;19968;-68
2022/01/27 12:11:10;;;;;;;;;;;;;;;-139.48;100.00;61774.03;5015970;28;19924;-69
2022/01/27 12:14:00;;;;;;;;;;;;;;;-139.48;100.00;61774.03;5014898;28;19925;-68
2022/01/27 12:19:52;;;;;;;;;;;;;;;-139.48;100.00;61774.03;5015083;28;20285;-68
2022/01/27 12:22:40;;;;;;;;;;;;;;;-139.48;100.00;61774.03;5015445;28;20296;-68
2022/01/27 12:25:24;;;;;;;;;;;;;;;-139.48;100.00;61774.03;5015483;28;19983;-69
2022/01/27 12:28:08;;;;;;;;;;;;;;;-139.48;100.00;61774.03;5014615;28;19925;-69
2022/01/27 12:30:55;;;;;;;;;;;;;;;-139.48;100.00;61774.03;5014334;28;19977;-69
2022/01/27 12:33:39;;;;;;;;;;;;;;;-139.48;100.00;61774.03;5014422;28;19940;-69
2022/01/27 12:36:23;;;;;;;;;;;;;;;-139.48;100.00;61774.03;5014253;28;19933;-68
2022/01/27 12:39:09;;;;;;;;;;;;;;;-139.48;100.00;61774.03;5015223;28;20028;-68
2022/01/27 12:41:54;;;;;;;;;;;;;;;-139.48;100.00;61774.03;5014852;28;20437;-69
2022/01/27 12:44:41;;;;;;;;;;;;;;;-139.48;100.00;61774.03;5013937;28;19924;-68
2022/01/27 12:47:28;;;;;;;;;;;;;;;-139.48;100.00;61774.03;5014331;28;19924;-69
2022/01/27 12:50:13;;;;;;;;;;;;;;;-139.48;100.00;61774.03;5015463;28;19970;-69
2022/01/27 12:53:01;;;;;;;;;;;;;;;-139.48;100.00;61774.03;5014928;28;19940;-68
2022/01/27 12:55:45;;;;;;;;;;;;;;;-139.48;100.00;61774.03;5013998;28;19924;-68
2022/01/27 12:58:29;;;;;;;;;;;;;;;-139.48;100.00;61774.03;5014999;28;19967;-69
2022/01/27 13:01:13;;;;;;;;;;;;;;;-139.48;100.00;61774.03;5000185;28;20011;-70
2022/01/27 13:04:00;;;;;;;;;;;;;;;-139.48;100.00;61774.03;5013958;28;20017;-68
2022/01/27 13:06:50;;;;;;;;;;;;;;;-139.48;100.00;61774.03;5013953;28;19924;-68
2022/01/27 13:09:35;;;;;;;;;;;;;;;-139.48;100.00;61774.03;5013995;28;20022;-68
2022/01/27 13:12:24;;;;;;;;;;;;;;;-139.48;100.00;61774.03;5013917;28;19924;-69
2022/01/27 13:15:14;;;;;;;;;;;;;;;-139.48;100.00;61774.03;5013662;28;19924;-69
2022/01/27 13:18:03;;;;;;;;;;;;;;;-139.48;100.00;61774.03;5013661;28;19979;-69
2022/01/27 13:20:53;;;;;;;;;;;;;;;-139.48;100.00;61774.03;5013612;28;19944;-69
2022/01/27 13:23:42;;;;;;;;;;;;;;;-139.48;100.00;61774.03;5000743;28;19928;-68
2022/01/27 13:26:26;;;;;;;;;;;;;;;-139.48;100.00;61774.03;5013283;28;20388;-68
2022/01/27 13:29:10;;;;;;;;;;;;;;;-139.48;100.00;61774.03;5013383;28;20035;-68
2022/01/27 13:31:54;;;;;;;;;;;;;;;-139.48;100.00;61774.03;5014444;28;20052;-69
2022/01/27 13:34:42;;;;;;;;;;;;;;;-139.48;100.00;61774.03;5013205;28;19925;-69
2022/01/27 13:37:27;;;;;;;;;;;;;;;-139.48;100.00;61774.03;5015808;28;19928;-71
2022/01/27 13:43:14;;;;;;;;;;;;;;;-139.48;100.00;61774.03;5013141;28;19924;-70
2022/01/27 13:45:58;;;;;;;;;;;;;;;-139.48;100.00;61774.03;5013181;28;20258;-70
2022/01/27 13:48:42;;;;;;;;;;;;;;;-139.48;100.00;61774.03;5013187;28;20360;-70
2022/01/27 13:51:26;;;;;;;;;;;;;;;-139.48;100.00;61774.03;5013257;28;20033;-70
2022/01/27 13:54:10;;;;;;;;;;;;;;;-139.48;100.00;61774.03;5012363;28;20013;-71
2022/01/27 13:56:55;;;;;;;;;;;;;;;-139.48;100.00;61774.03;4999134;28;20016;-70
2022/01/27 13:59:52;;;;;;;;;;;;;;;-139.48;100.00;61774.03;5013030;28;20452;-71
2022/01/27 14:02:38;;;;;;;;;;;;;;;-139.48;100.00;61774.03;5013737;28;19941;-70
2022/01/27 14:05:22;;;;;;;;;;;;;;;-139.48;100.00;61774.03;5012861;28;19978;-71
2022/01/27 14:08:06;;;;;;;;;;;;;;;-139.48;100.00;61774.03;5012838;28;19940;-70
2022/01/27 14:10:50;;;;;;;;;;;;;;;-139.48;100.00;61774.03;5014015;28;20420;-71
2022/01/27 14:13:34;;;;;;;;;;;;;;;-139.48;100.00;61774.03;5012829;28;19940;-70
2022/01/27 14:16:27;;;;;;;;;;;;;;;-139.48;100.00;61774.03;5013687;28;19928;-71
2022/01/27 14:19:15;;;;;;;;;;;;;;;-139.48;100.00;61774.03;5012984;28;19975;-71
2022/01/27 14:21:59;;;;;;;;;;;;;;;-139.48;100.00;61774.03;5012770;28;19924;-71
2022/01/27 14:24:58;;;;;;;;;;;;;;;-139.48;100.00;61774.03;5013380;28;19924;-70
2022/01/27 14:27:42;;;;;;;;;;;;;;;-139.48;100.00;61774.03;5012537;28;19928;-70
2022/01/27 14:30:26;;;;;;;;;;;;;;;-139.48;100.00;61774.03;5012378;28;19932;-71
2022/01/27 14:33:10;;;;;;;;;;;;;;;-139.48;100.00;61774.03;5013655;28;20352;-70
2022/01/27 14:35:54;;;;;;;;;;;;;;;-139.48;100.00;61774.03;5012218;28;20354;-70
2022/01/27 14:38:39;;;;;;;;;;;;;;;-139.48;100.00;61774.03;4998754;28;19940;-70
2022/01/27 14:41:23;;;;;;;;;;;;;;;-139.48;100.00;61774.03;5012312;28;19925;-70
2022/01/27 14:44:07;;;;;;;;;;;;;;;-139.48;100.00;61774.03;5013423;28;19924;-70